createdAt,value
2018-12-22T00:00:47.593Z,480.75
2018-12-22T00:01:47.359Z,484.08
2018-12-22T00:02:47.333Z,481.24
2018-12-22T00:03:47.351Z,485.39
2018-12-22T00:04:47.384Z,487.19
2018-12-22T00:05:47.351Z,489.23
2018-12-22T00:06:47.280Z,470.32
2018-12-22T00:07:47.322Z,482.24
2018-12-22T00:08:47.297Z,481.30
2018-12-22T00:09:47.294Z,478.96
2018-12-22T00:10:47.227Z,483.47
2018-12-22T00:11:47.252Z,475.94
2018-12-22T00:12:47.270Z,482.85
2018-12-22T00:13:47.244Z,474.43
2018-12-22T00:14:47.912Z,474.75
2018-12-22T00:15:47.282Z,472.21
2018-12-22T00:16:47.822Z,476.76
2018-12-22T00:17:47.162Z,476.19
2018-12-22T00:18:47.181Z,476.25
2018-12-22T00:19:47.182Z,477.39
2018-12-22T00:20:47.255Z,479.02
2018-12-22T00:21:47.111Z,473.29
2018-12-22T00:22:47.160Z,475.38
2018-12-22T00:23:47.075Z,467.45
2018-12-22T00:24:47.123Z,474.25
2018-12-22T00:25:47.159Z,471.71
2018-12-22T00:26:47.115Z,479.01
2018-12-22T00:27:47.060Z,476.75
2018-12-22T00:28:47.822Z,469.94
2018-12-22T00:29:47.049Z,471.49
2018-12-22T00:30:47.036Z,478.92
2018-12-22T00:31:47.103Z,470.89
2018-12-22T00:32:47.020Z,475.83
2018-12-22T00:33:47.013Z,479.04
2018-12-22T00:34:47.007Z,479.44
2018-12-22T00:35:47.011Z,475.28
2018-12-22T00:36:47.014Z,473.88
2018-12-22T00:37:46.968Z,474.17
2018-12-22T00:38:47.022Z,475.25
2018-12-22T00:39:46.988Z,475.25
2018-12-22T00:40:46.910Z,472.34
2018-12-22T00:41:47.041Z,477.83
2018-12-22T00:42:48.273Z,478.77
2018-12-22T00:43:47.055Z,472.09
2018-12-22T00:44:47.016Z,468.66
2018-12-22T00:45:47.829Z,476.13
2018-12-22T00:46:46.889Z,480.95
2018-12-22T00:47:48.146Z,472.54
2018-12-22T00:48:46.870Z,481.24
2018-12-22T00:49:46.870Z,476.32
2018-12-22T00:50:47.139Z,472.54
2018-12-22T00:51:46.819Z,476.65
2018-12-22T00:52:46.816Z,474.77
2018-12-22T00:53:46.812Z,476.83
2018-12-22T00:54:46.821Z,473.07
2018-12-22T00:55:47.397Z,468.22
2018-12-22T00:56:46.778Z,470.50
2018-12-22T00:57:46.744Z,473.31
2018-12-22T00:58:46.732Z,475.81
2018-12-22T00:59:47.437Z,472.86
2018-12-22T01:00:46.906Z,469.03
2018-12-22T01:01:46.722Z,467.54
2018-12-22T01:02:46.717Z,472.02
2018-12-22T01:03:46.692Z,474.31
2018-12-22T01:04:46.682Z,475.70
2018-12-22T01:05:46.989Z,473.06
2018-12-22T01:06:46.685Z,472.31
2018-12-22T01:07:46.713Z,471.70
2018-12-22T01:08:46.637Z,472.76
2018-12-22T01:09:46.623Z,470.41
2018-12-22T01:10:46.779Z,467.77
2018-12-22T01:11:46.634Z,473.65
2018-12-22T01:12:46.637Z,470.39
2018-12-22T01:13:46.585Z,469.29
2018-12-22T01:14:47.332Z,473.22
2018-12-22T01:15:46.646Z,476.98
2018-12-22T01:16:46.787Z,473.83
2018-12-22T01:17:46.766Z,475.74
2018-12-22T01:18:46.640Z,469.54
2018-12-22T01:19:46.542Z,467.63
2018-12-22T01:20:47.333Z,473.43
2018-12-22T01:21:46.512Z,470.90
2018-12-22T01:22:46.549Z,464.70
2018-12-22T01:23:47.334Z,470.86
2018-12-22T01:24:46.590Z,468.18
2018-12-22T01:25:46.481Z,476.21
2018-12-22T01:26:46.527Z,466.12
2018-12-22T01:27:46.478Z,471.74
2018-12-22T01:28:46.524Z,470.41
2018-12-22T01:29:46.402Z,473.49
2018-12-22T01:30:46.482Z,474.55
2018-12-22T01:31:46.411Z,474.02
2018-12-22T01:32:46.400Z,475.13
2018-12-22T01:33:47.838Z,471.50
2018-12-22T01:34:46.365Z,469.49
2018-12-22T01:35:46.970Z,476.45
2018-12-22T01:36:47.336Z,472.70
2018-12-22T01:37:46.329Z,474.93
2018-12-22T01:38:46.318Z,474.32
2018-12-22T01:39:46.722Z,474.45
2018-12-22T01:40:46.316Z,475.92
2018-12-22T01:41:46.942Z,469.71
2018-12-22T01:42:46.269Z,477.05
2018-12-22T01:43:46.307Z,474.60
2018-12-22T01:44:46.368Z,466.04
2018-12-22T01:45:46.276Z,479.11
2018-12-22T01:46:46.225Z,478.46
2018-12-22T01:47:46.843Z,479.10
2018-12-22T01:48:46.293Z,475.34
2018-12-22T01:49:46.366Z,475.25
2018-12-22T01:50:46.201Z,480.02
2018-12-22T01:51:46.225Z,479.30
2018-12-22T01:52:46.223Z,478.07
2018-12-22T01:53:46.268Z,476.74
2018-12-22T01:54:46.175Z,474.56
2018-12-22T01:55:46.385Z,482.33
2018-12-22T01:56:46.156Z,482.11
2018-12-22T01:57:46.098Z,475.48
2018-12-22T01:58:47.935Z,478.87
2018-12-22T01:59:46.104Z,477.71
2018-12-22T02:00:46.105Z,477.82
2018-12-22T02:01:46.092Z,475.28
2018-12-22T02:02:46.040Z,476.93
2018-12-22T02:03:46.110Z,476.90
2018-12-22T02:04:46.039Z,484.93
2018-12-22T02:05:46.012Z,473.26
2018-12-22T02:06:46.033Z,479.03
2018-12-22T02:07:46.013Z,477.22
2018-12-22T02:08:46.002Z,479.72
2018-12-22T02:09:46.005Z,478.31
2018-12-22T02:10:46.039Z,485.58
2018-12-22T02:11:45.973Z,478.56
2018-12-22T02:12:45.963Z,478.34
2018-12-22T02:13:45.919Z,479.53
2018-12-22T02:14:45.949Z,479.95
2018-12-22T02:15:45.954Z,480.41
2018-12-22T02:16:45.912Z,474.43
2018-12-22T02:17:45.891Z,485.41
2018-12-22T02:18:45.880Z,483.90
2018-12-22T02:19:45.856Z,483.14
2018-12-22T02:20:45.890Z,485.38
2018-12-22T02:21:45.822Z,482.17
2018-12-22T02:22:45.826Z,477.57
2018-12-22T02:23:45.867Z,480.10
2018-12-22T02:24:45.838Z,478.81
2018-12-22T02:25:45.858Z,485.31
2018-12-22T02:26:45.816Z,478.29
2018-12-22T02:27:45.785Z,482.56
2018-12-22T02:28:45.804Z,483.99
2018-12-22T02:29:45.769Z,482.46
2018-12-22T02:30:45.776Z,479.84
2018-12-22T02:31:45.743Z,482.91
2018-12-22T02:32:45.761Z,487.65
2018-12-22T02:33:45.744Z,476.68
2018-12-22T02:34:45.728Z,480.04
2018-12-22T02:35:45.714Z,476.17
2018-12-22T02:36:45.731Z,481.84
2018-12-22T02:37:45.717Z,486.88
2018-12-22T02:38:45.821Z,481.15
2018-12-22T02:39:45.662Z,482.77
2018-12-22T02:40:45.705Z,483.37
2018-12-22T02:41:45.630Z,479.92
2018-12-22T02:42:45.719Z,482.42
2018-12-22T02:43:45.648Z,486.45
2018-12-22T02:44:45.594Z,485.13
2018-12-22T02:45:45.633Z,484.01
2018-12-22T02:46:45.616Z,483.88
2018-12-22T02:47:45.604Z,486.90
2018-12-22T02:48:45.603Z,485.00
2018-12-22T02:49:45.576Z,479.23
2018-12-22T02:50:45.552Z,480.97
2018-12-22T02:51:45.575Z,478.07
2018-12-22T02:52:45.562Z,480.97
2018-12-22T02:53:45.507Z,486.32
2018-12-22T02:54:45.506Z,481.58
2018-12-22T02:55:45.480Z,481.86
2018-12-22T02:56:45.509Z,482.08
2018-12-22T02:57:45.477Z,477.38
2018-12-22T02:58:45.491Z,482.79
2018-12-22T02:59:45.437Z,479.54
2018-12-22T03:00:45.463Z,487.79
2018-12-22T03:01:45.573Z,481.61
2018-12-22T03:02:45.419Z,488.30
2018-12-22T03:03:45.431Z,480.43
2018-12-22T03:04:45.401Z,484.79
2018-12-22T03:05:45.365Z,480.81
2018-12-22T03:06:45.369Z,481.22
2018-12-22T03:07:45.405Z,483.06
2018-12-22T03:08:45.381Z,483.61
2018-12-22T03:09:45.399Z,482.05
2018-12-22T03:10:45.338Z,484.58
2018-12-22T03:11:45.337Z,480.65
2018-12-22T03:12:45.334Z,482.24
2018-12-22T03:13:45.308Z,483.23
2018-12-22T03:14:45.303Z,485.01
2018-12-22T03:15:45.328Z,477.27
2018-12-22T03:16:45.273Z,481.73
2018-12-22T03:17:45.281Z,484.00
2018-12-22T03:18:45.277Z,482.17
2018-12-22T03:19:45.240Z,484.26
2018-12-22T03:20:45.254Z,488.20
2018-12-22T03:21:45.249Z,481.93
2018-12-22T03:22:45.198Z,485.75
2018-12-22T03:23:45.202Z,480.86
2018-12-22T03:24:45.193Z,484.24
2018-12-22T03:25:45.243Z,492.09
2018-12-22T03:26:45.189Z,484.14
2018-12-22T03:27:45.167Z,485.75
2018-12-22T03:28:45.177Z,485.18
2018-12-22T03:29:45.137Z,485.15
2018-12-22T03:30:45.147Z,487.79
2018-12-22T03:31:45.134Z,485.20
2018-12-22T03:32:45.115Z,482.73
2018-12-22T03:33:45.101Z,481.32
2018-12-22T03:34:45.097Z,482.63
2018-12-22T03:35:45.091Z,480.83
2018-12-22T03:36:45.082Z,486.24
2018-12-22T03:37:45.051Z,474.44
2018-12-22T03:38:45.053Z,484.32
2018-12-22T03:39:45.032Z,482.01
2018-12-22T03:40:45.064Z,480.99
2018-12-22T03:41:45.038Z,487.70
2018-12-22T03:42:44.998Z,483.00
2018-12-22T03:43:44.988Z,483.65
2018-12-22T03:44:44.986Z,490.02
2018-12-22T03:45:44.968Z,484.20
2018-12-22T03:46:44.973Z,486.69
2018-12-22T03:47:44.993Z,486.59
2018-12-22T03:48:44.937Z,485.34
2018-12-22T03:49:44.930Z,484.04
2018-12-22T03:50:44.962Z,487.63
2018-12-22T03:51:44.917Z,489.04
2018-12-22T03:52:44.893Z,478.09
2018-12-22T03:53:44.945Z,486.10
2018-12-22T03:54:44.898Z,483.97
2018-12-22T03:55:44.878Z,488.92
2018-12-22T03:56:44.889Z,487.03
2018-12-22T03:57:44.837Z,485.58
2018-12-22T03:58:44.827Z,480.79
2018-12-22T03:59:44.837Z,483.52
2018-12-22T04:00:44.814Z,483.84
2018-12-22T04:01:44.809Z,486.79
2018-12-22T04:02:44.925Z,488.14
2018-12-22T04:03:44.787Z,484.20
2018-12-22T04:04:44.790Z,485.33
2018-12-22T04:05:44.774Z,487.02
2018-12-22T04:06:44.760Z,485.75
2018-12-22T04:07:44.771Z,484.87
2018-12-22T04:08:44.733Z,485.10
2018-12-22T04:09:44.832Z,488.30
2018-12-22T04:10:44.712Z,488.27
2018-12-22T04:11:44.743Z,487.88
2018-12-22T04:12:44.738Z,489.10
2018-12-22T04:13:44.696Z,489.51
2018-12-22T04:14:44.810Z,490.77
2018-12-22T04:15:44.648Z,487.32
2018-12-22T04:16:44.653Z,483.18
2018-12-22T04:17:44.666Z,484.70
2018-12-22T04:18:44.629Z,485.26
2018-12-22T04:19:44.657Z,484.00
2018-12-22T04:20:44.597Z,491.33
2018-12-22T04:21:44.641Z,489.91
2018-12-22T04:22:44.609Z,487.95
2018-12-22T04:23:44.605Z,489.16
2018-12-22T04:24:44.578Z,488.49
2018-12-22T04:25:44.666Z,486.30
2018-12-22T04:26:44.540Z,492.61
2018-12-22T04:27:44.562Z,490.39
2018-12-22T04:28:44.551Z,487.87
2018-12-22T04:29:44.523Z,486.45
2018-12-22T04:30:44.528Z,492.23
2018-12-22T04:31:44.517Z,490.76
2018-12-22T04:32:44.473Z,486.84
2018-12-22T04:33:44.481Z,491.37
2018-12-22T04:34:44.437Z,491.74
2018-12-22T04:35:44.429Z,488.65
2018-12-22T04:36:44.459Z,486.90
2018-12-22T04:37:44.437Z,486.03
2018-12-22T04:38:44.437Z,489.04
2018-12-22T04:39:44.400Z,491.56
2018-12-22T04:40:44.391Z,488.91
2018-12-22T04:41:44.412Z,489.56
2018-12-22T04:42:44.380Z,487.08
2018-12-22T04:43:44.411Z,485.87
2018-12-22T04:44:44.356Z,484.43
2018-12-22T04:45:44.410Z,483.44
2018-12-22T04:46:44.322Z,485.05
2018-12-22T04:47:44.377Z,487.70
2018-12-22T04:48:44.313Z,488.09
2018-12-22T04:49:44.314Z,492.93
2018-12-22T04:50:44.324Z,489.18
2018-12-22T04:51:44.334Z,485.70
2018-12-22T04:52:44.295Z,487.42
2018-12-22T04:53:44.269Z,488.54
2018-12-22T04:54:44.233Z,482.17
2018-12-22T04:55:44.259Z,488.87
2018-12-22T04:56:44.225Z,483.05
2018-12-22T04:57:44.227Z,488.15
2018-12-22T04:58:44.221Z,485.73
2018-12-22T04:59:44.232Z,484.46
2018-12-22T05:00:44.189Z,484.66
2018-12-22T05:01:44.191Z,487.99
2018-12-22T05:02:44.245Z,495.92
2018-12-22T05:03:44.157Z,482.96
2018-12-22T05:04:44.186Z,486.05
2018-12-22T05:05:44.127Z,481.17
2018-12-22T05:06:44.134Z,483.73
2018-12-22T05:07:44.102Z,481.71
2018-12-22T05:08:44.099Z,484.54
2018-12-22T05:09:44.091Z,481.10
2018-12-22T05:10:44.115Z,484.02
2018-12-22T05:11:44.075Z,481.56
2018-12-22T05:12:44.052Z,488.98
2018-12-22T05:13:44.036Z,483.96
2018-12-22T05:14:44.020Z,488.06
2018-12-22T05:15:44.064Z,485.35
2018-12-22T05:16:44.012Z,480.93
2018-12-22T05:17:44.018Z,482.88
2018-12-22T05:18:43.986Z,487.73
2018-12-22T05:19:44.015Z,486.09
2018-12-22T05:20:43.969Z,485.51
2018-12-22T05:21:43.962Z,487.12
2018-12-22T05:22:43.945Z,486.46
2018-12-22T05:23:43.949Z,487.48
2018-12-22T05:24:43.950Z,490.46
2018-12-22T05:25:43.946Z,485.64
2018-12-22T05:26:43.922Z,483.00
2018-12-22T05:27:43.893Z,484.54
2018-12-22T05:28:43.898Z,482.21
2018-12-22T05:29:51.590Z,488.62
2018-12-22T05:30:44.888Z,487.50
2018-12-22T05:31:43.893Z,490.38
2018-12-22T05:32:43.906Z,485.98
2018-12-22T05:33:43.850Z,482.49
2018-12-22T05:34:44.380Z,484.29
2018-12-22T05:35:43.814Z,481.70
2018-12-22T05:36:43.802Z,489.83
2018-12-22T05:37:43.971Z,483.34
2018-12-22T05:38:52.480Z,481.48
2018-12-22T05:39:43.774Z,484.64
2018-12-22T05:40:43.782Z,488.16
2018-12-22T05:41:43.779Z,490.02
2018-12-22T05:42:43.742Z,486.74
2018-12-22T05:43:43.791Z,485.48
2018-12-22T05:44:53.046Z,483.93
2018-12-22T05:45:53.057Z,488.40
2018-12-22T05:46:43.695Z,487.08
2018-12-22T05:47:53.075Z,485.93
2018-12-22T05:48:52.640Z,487.57
2018-12-22T05:49:53.143Z,485.96
2018-12-22T05:50:52.702Z,481.53
2018-12-22T05:51:43.683Z,483.03
2018-12-22T05:52:43.627Z,483.67
2018-12-22T05:53:52.810Z,487.67
2018-12-22T05:54:43.622Z,487.29
2018-12-22T05:55:43.719Z,486.12
2018-12-22T05:56:43.586Z,488.92
2018-12-22T05:57:43.562Z,487.28
2018-12-22T05:58:43.730Z,486.33
2018-12-22T05:59:43.582Z,482.47
2018-12-22T06:00:43.605Z,486.63
2018-12-22T06:01:43.517Z,482.73
2018-12-22T06:02:43.525Z,487.41
2018-12-22T06:03:43.514Z,484.85
2018-12-22T06:04:43.511Z,487.81
2018-12-22T06:05:43.493Z,481.86
2018-12-22T06:06:43.486Z,485.03
2018-12-22T06:07:43.458Z,484.90
2018-12-22T06:08:43.452Z,486.54
2018-12-22T06:09:43.485Z,481.04
2018-12-22T06:10:43.517Z,484.27
2018-12-22T06:11:52.289Z,486.33
2018-12-22T06:12:43.418Z,487.40
2018-12-22T06:13:52.802Z,483.32
2018-12-22T06:14:44.240Z,485.01
2018-12-22T06:15:43.414Z,486.64
2018-12-22T06:16:43.352Z,485.06
2018-12-22T06:17:52.831Z,481.50
2018-12-22T06:18:52.886Z,480.70
2018-12-22T06:19:52.417Z,484.51
2018-12-22T06:20:43.329Z,485.17
2018-12-22T06:21:43.324Z,483.53
2018-12-22T06:22:52.951Z,482.81
2018-12-22T06:23:53.503Z,481.62
2018-12-22T06:24:43.279Z,474.44
2018-12-22T06:25:43.323Z,487.16
2018-12-22T06:26:43.297Z,479.00
2018-12-22T06:27:43.261Z,480.74
2018-12-22T06:28:43.302Z,482.38
2018-12-22T06:29:43.268Z,483.02
2018-12-22T06:30:43.231Z,485.20
2018-12-22T06:31:43.246Z,486.91
2018-12-22T06:32:43.245Z,487.37
2018-12-22T06:33:51.509Z,485.60
2018-12-22T06:34:43.198Z,485.79
2018-12-22T06:35:43.225Z,484.39
2018-12-22T06:36:43.412Z,483.42
2018-12-22T06:37:43.177Z,484.62
2018-12-22T06:38:43.187Z,487.15
2018-12-22T06:39:43.148Z,490.16
2018-12-22T06:40:43.123Z,484.93
2018-12-22T06:41:43.182Z,482.82
2018-12-22T06:42:43.119Z,483.89
2018-12-22T06:43:43.213Z,485.57
2018-12-22T06:44:43.122Z,479.77
2018-12-22T06:45:43.168Z,482.60
2018-12-22T06:46:43.102Z,480.35
2018-12-22T06:47:43.109Z,483.15
2018-12-22T06:48:43.060Z,482.61
2018-12-22T06:49:43.110Z,483.11
2018-12-22T06:50:43.039Z,482.87
2018-12-22T06:51:43.048Z,481.48
2018-12-22T06:52:43.014Z,482.45
2018-12-22T06:53:43.034Z,486.40
2018-12-22T06:54:43.043Z,488.01
2018-12-22T06:55:43.047Z,487.94
2018-12-22T06:56:43.007Z,483.10
2018-12-22T06:57:42.981Z,486.64
2018-12-22T06:58:42.927Z,489.69
2018-12-22T06:59:43.066Z,483.58
2018-12-22T07:00:42.915Z,483.15
2018-12-22T07:01:42.972Z,487.28
2018-12-22T07:02:42.913Z,487.02
2018-12-22T07:03:42.924Z,485.99
2018-12-22T07:04:42.884Z,482.72
2018-12-22T07:05:42.928Z,484.77
2018-12-22T07:06:42.882Z,489.71
2018-12-22T07:07:42.895Z,485.62
2018-12-22T07:08:42.848Z,480.49
2018-12-22T07:09:42.872Z,485.67
2018-12-22T07:10:42.841Z,488.12
2018-12-22T07:11:42.844Z,487.31
2018-12-22T07:12:42.834Z,487.06
2018-12-22T07:13:42.872Z,488.70
2018-12-22T07:14:42.805Z,483.00
2018-12-22T07:15:42.830Z,484.50
2018-12-22T07:16:42.751Z,485.59
2018-12-22T07:17:42.745Z,484.77
2018-12-22T07:18:42.795Z,480.59
2018-12-22T07:19:42.906Z,486.92
2018-12-22T07:20:42.733Z,486.42
2018-12-22T07:21:42.708Z,487.71
2018-12-22T07:22:42.689Z,483.79
2018-12-22T07:23:42.717Z,482.42
2018-12-22T07:24:42.688Z,480.74
2018-12-22T07:25:42.662Z,485.30
2018-12-22T07:26:42.735Z,485.13
2018-12-22T07:27:42.674Z,481.08
2018-12-22T07:28:42.651Z,479.74
2018-12-22T07:29:42.696Z,482.31
2018-12-22T07:30:42.643Z,474.16
2018-12-22T07:31:42.577Z,476.98
2018-12-22T07:32:42.696Z,479.38
2018-12-22T07:33:42.608Z,481.44
2018-12-22T07:34:42.600Z,482.02
2018-12-22T07:35:42.570Z,475.57
2018-12-22T07:36:42.582Z,480.96
2018-12-22T07:37:42.532Z,480.76
2018-12-22T07:38:42.636Z,482.35
2018-12-22T07:39:42.552Z,481.58
2018-12-22T07:40:42.518Z,486.21
2018-12-22T07:41:42.472Z,484.51
2018-12-22T07:42:42.486Z,479.14
2018-12-22T07:43:42.478Z,482.21
2018-12-22T07:44:42.528Z,486.15
2018-12-22T07:45:42.436Z,488.93
2018-12-22T07:46:42.430Z,482.78
2018-12-22T07:47:42.435Z,488.21
2018-12-22T07:48:42.416Z,483.75
2018-12-22T07:49:42.997Z,483.49
2018-12-22T07:50:42.473Z,482.74
2018-12-22T07:51:42.400Z,482.70
2018-12-22T07:52:42.420Z,482.48
2018-12-22T07:53:42.426Z,487.18
2018-12-22T07:54:43.720Z,481.58
2018-12-22T07:55:42.419Z,482.45
2018-12-22T07:56:42.325Z,491.15
2018-12-22T07:57:42.425Z,492.06
2018-12-22T07:58:42.403Z,489.07
2018-12-22T07:59:42.342Z,483.51
2018-12-22T08:00:42.320Z,485.00
2018-12-22T08:01:42.349Z,482.02
2018-12-22T08:02:42.326Z,478.29
2018-12-22T08:03:42.267Z,479.66
2018-12-22T08:04:42.310Z,484.31
2018-12-22T08:05:42.265Z,493.98
2018-12-22T08:06:42.225Z,490.88
2018-12-22T08:07:42.215Z,486.40
2018-12-22T08:08:42.272Z,487.16
2018-12-22T08:09:42.243Z,490.61
2018-12-22T08:10:42.202Z,493.90
2018-12-22T08:11:42.241Z,484.53
2018-12-22T08:12:42.239Z,483.60
2018-12-22T08:13:42.176Z,487.00
2018-12-22T08:14:42.151Z,484.69
2018-12-22T08:15:43.119Z,488.89
2018-12-22T08:16:42.149Z,490.04
2018-12-22T08:17:42.189Z,484.67
2018-12-22T08:18:42.222Z,495.08
2018-12-22T08:19:42.197Z,487.08
2018-12-22T08:20:42.087Z,492.28
2018-12-22T08:21:42.121Z,491.86
2018-12-22T08:22:42.098Z,488.77
2018-12-22T08:23:42.066Z,486.33
2018-12-22T08:24:42.075Z,486.09
2018-12-22T08:25:42.064Z,489.39
2018-12-22T08:26:42.070Z,487.94
2018-12-22T08:27:42.007Z,485.12
2018-12-22T08:28:42.045Z,487.55
2018-12-22T08:29:42.038Z,487.86
2018-12-22T08:30:43.751Z,482.41
2018-12-22T08:31:42.002Z,484.35
2018-12-22T08:32:41.954Z,481.77
2018-12-22T08:33:42.014Z,484.66
2018-12-22T08:34:41.966Z,489.85
2018-12-22T08:35:41.958Z,485.76
2018-12-22T08:36:41.912Z,489.48
2018-12-22T08:37:41.900Z,487.32
2018-12-22T08:38:41.921Z,485.94
2018-12-22T08:39:41.903Z,482.79
2018-12-22T08:40:41.869Z,490.54
2018-12-22T08:41:41.857Z,484.88
2018-12-22T08:42:41.871Z,481.45
2018-12-22T08:43:41.843Z,478.20
2018-12-22T08:44:42.940Z,486.73
2018-12-22T08:45:41.913Z,483.97
2018-12-22T08:46:41.842Z,481.87
2018-12-22T08:47:41.786Z,488.84
2018-12-22T08:48:41.818Z,485.58
2018-12-22T08:49:41.776Z,485.62
2018-12-22T08:50:41.821Z,485.20
2018-12-22T08:51:41.757Z,496.64
2018-12-22T08:52:41.792Z,490.95
2018-12-22T08:53:41.745Z,480.73
2018-12-22T08:54:41.732Z,483.03
2018-12-22T08:55:41.700Z,477.65
2018-12-22T08:56:41.810Z,479.43
2018-12-22T08:57:41.715Z,486.14
2018-12-22T08:58:41.700Z,486.02
2018-12-22T08:59:41.691Z,486.82
2018-12-22T09:00:41.707Z,479.31
2018-12-22T09:01:41.695Z,476.96
2018-12-22T09:02:41.638Z,484.55
2018-12-22T09:03:41.628Z,481.66
2018-12-22T09:04:41.658Z,481.26
2018-12-22T09:05:41.624Z,479.09
2018-12-22T09:06:41.585Z,477.78
2018-12-22T09:07:41.607Z,483.72
2018-12-22T09:08:41.575Z,481.47
2018-12-22T09:09:41.568Z,481.73
2018-12-22T09:10:41.533Z,486.76
2018-12-22T09:11:41.582Z,490.27
2018-12-22T09:12:41.533Z,478.60
2018-12-22T09:13:41.508Z,479.85
2018-12-22T09:14:41.559Z,480.35
2018-12-22T09:15:41.493Z,484.56
2018-12-22T09:16:41.583Z,475.51
2018-12-22T09:17:41.558Z,480.17
2018-12-22T09:18:41.439Z,482.96
2018-12-22T09:19:41.466Z,475.96
2018-12-22T09:20:50.612Z,478.08
2018-12-22T09:21:41.465Z,481.12
2018-12-22T09:22:41.387Z,481.30
2018-12-22T09:23:41.389Z,478.67
2018-12-22T09:24:41.417Z,480.83
2018-12-22T09:25:41.370Z,471.19
2018-12-22T09:26:41.408Z,491.54
2018-12-22T09:27:41.406Z,486.59
2018-12-22T09:28:41.373Z,480.57
2018-12-22T09:29:41.368Z,477.17
2018-12-22T09:30:41.353Z,483.60
2018-12-22T09:31:41.327Z,479.12
2018-12-22T09:32:41.369Z,481.42
2018-12-22T09:33:41.349Z,480.69
2018-12-22T09:34:41.346Z,485.11
2018-12-22T09:35:41.273Z,482.96
2018-12-22T09:36:41.281Z,486.45
2018-12-22T09:37:41.266Z,468.85
2018-12-22T09:38:41.273Z,482.64
2018-12-22T09:39:41.253Z,481.31
2018-12-22T09:40:41.332Z,484.40
2018-12-22T09:41:41.331Z,478.95
2018-12-22T09:42:41.343Z,475.25
2018-12-22T09:43:41.327Z,482.67
2018-12-22T09:44:41.237Z,472.49
2018-12-22T09:45:41.190Z,481.82
2018-12-22T09:46:41.220Z,475.83
2018-12-22T09:47:41.220Z,477.30
2018-12-22T09:48:41.161Z,476.87
2018-12-22T09:49:41.126Z,472.83
2018-12-22T09:50:41.144Z,473.23
2018-12-22T09:51:41.123Z,475.58
2018-12-22T09:52:41.121Z,475.13
2018-12-22T09:53:41.172Z,477.57
2018-12-22T09:54:42.049Z,471.66
2018-12-22T09:55:41.179Z,483.03
2018-12-22T09:56:41.203Z,470.73
2018-12-22T09:57:41.047Z,471.44
2018-12-22T09:58:41.073Z,467.56
2018-12-22T09:59:41.063Z,473.59
2018-12-22T10:00:41.030Z,472.32
2018-12-22T10:01:41.038Z,467.04
2018-12-22T10:02:41.013Z,467.73
2018-12-22T10:03:40.987Z,476.26
2018-12-22T10:04:41.004Z,469.45
2018-12-22T10:05:40.977Z,475.05
2018-12-22T10:06:40.971Z,477.35
2018-12-22T10:07:40.985Z,471.73
2018-12-22T10:08:41.060Z,474.39
2018-12-22T10:09:41.315Z,468.65
2018-12-22T10:10:50.890Z,473.87
2018-12-22T10:11:42.694Z,471.35
2018-12-22T10:12:40.906Z,466.27
2018-12-22T10:13:40.882Z,470.59
2018-12-22T10:14:40.880Z,468.80
2018-12-22T10:15:41.089Z,470.04
2018-12-22T10:16:40.933Z,469.16
2018-12-22T10:17:40.925Z,468.19
2018-12-22T10:18:40.876Z,466.03
2018-12-22T10:19:40.856Z,467.03
2018-12-22T10:20:41.061Z,464.29
2018-12-22T10:21:40.799Z,468.06
2018-12-22T10:22:40.819Z,465.00
2018-12-22T10:23:40.781Z,466.42
2018-12-22T10:24:40.801Z,465.88
2018-12-22T10:25:40.741Z,464.75
2018-12-22T10:26:40.750Z,462.69
2018-12-22T10:27:40.817Z,465.57
2018-12-22T10:28:40.721Z,466.24
2018-12-22T10:29:40.764Z,468.59
2018-12-22T10:30:40.674Z,464.66
2018-12-22T10:31:40.782Z,463.16
2018-12-22T10:32:40.687Z,469.55
2018-12-22T10:33:40.675Z,468.00
2018-12-22T10:34:40.656Z,464.66
2018-12-22T10:35:40.651Z,466.85
2018-12-22T10:36:40.633Z,467.86
2018-12-22T10:37:40.666Z,463.99
2018-12-22T10:38:40.607Z,463.79
2018-12-22T10:39:40.642Z,465.92
2018-12-22T10:40:40.638Z,460.43
2018-12-22T10:41:40.589Z,465.16
2018-12-22T10:42:40.754Z,467.87
2018-12-22T10:43:40.625Z,467.18
2018-12-22T10:44:40.598Z,465.30
2018-12-22T10:45:40.561Z,464.82
2018-12-22T10:46:40.548Z,462.80
2018-12-22T10:47:40.536Z,462.75
2018-12-22T10:48:40.554Z,464.42
2018-12-22T10:49:40.526Z,461.78
2018-12-22T10:50:40.493Z,459.46
2018-12-22T10:51:40.487Z,469.29
2018-12-22T10:52:40.551Z,468.44
2018-12-22T10:53:40.474Z,462.42
2018-12-22T10:54:40.473Z,465.05
2018-12-22T10:55:40.448Z,466.52
2018-12-22T10:56:40.413Z,467.64
2018-12-22T10:57:40.423Z,467.75
2018-12-22T10:58:40.453Z,464.52
2018-12-22T10:59:40.410Z,471.10
2018-12-22T11:00:40.392Z,463.81
2018-12-22T11:01:40.354Z,469.36
2018-12-22T11:02:40.360Z,471.15
2018-12-22T11:03:40.422Z,468.03
2018-12-22T11:04:40.335Z,467.17
2018-12-22T11:05:41.069Z,469.25
2018-12-22T11:06:40.411Z,473.78
2018-12-22T11:07:40.316Z,466.69
2018-12-22T11:09:58.450Z,507.32
2018-12-22T11:10:58.384Z,466.17
2018-12-22T11:11:58.387Z,469.47
2018-12-22T11:12:58.373Z,468.09
2018-12-22T11:13:58.347Z,463.61
2018-12-22T11:14:58.316Z,466.35
2018-12-22T11:15:58.321Z,469.47
2018-12-22T11:16:58.276Z,468.04
2018-12-22T11:17:58.375Z,469.19
2018-12-22T11:18:58.301Z,466.10
2018-12-22T11:20:07.725Z,466.34
2018-12-22T11:20:58.280Z,468.28
2018-12-22T11:21:58.239Z,465.02
2018-12-22T11:22:58.232Z,467.55
2018-12-22T11:23:58.206Z,466.71
2018-12-22T11:24:58.204Z,464.81
2018-12-22T11:25:58.195Z,468.21
2018-12-22T11:26:58.201Z,466.54
2018-12-22T11:27:58.158Z,466.23
2018-12-22T11:28:58.160Z,465.16
2018-12-22T11:29:58.137Z,468.10
2018-12-22T11:30:58.126Z,465.22
2018-12-22T11:32:00.137Z,467.70
2018-12-22T11:32:58.139Z,469.27
2018-12-22T11:33:58.121Z,468.09
2018-12-22T11:34:58.127Z,466.88
2018-12-22T11:35:58.134Z,464.10
2018-12-22T11:36:58.131Z,466.53
2018-12-22T11:37:58.056Z,468.79
2018-12-22T11:38:58.063Z,469.14
2018-12-22T11:39:59.126Z,467.98
2018-12-22T11:40:58.074Z,467.00
2018-12-22T11:41:58.716Z,468.73
2018-12-22T11:42:58.065Z,465.77
2018-12-22T11:43:58.015Z,468.27
2018-12-22T11:44:58.055Z,465.48
2018-12-22T11:45:57.988Z,466.79
2018-12-22T11:46:57.996Z,468.85
2018-12-22T11:47:58.033Z,465.99
2018-12-22T11:48:57.946Z,468.92
2018-12-22T11:49:57.970Z,465.03
2018-12-22T11:50:57.984Z,463.30
2018-12-22T11:51:57.960Z,468.94
2018-12-22T11:52:57.944Z,466.65
2018-12-22T11:53:57.945Z,464.81
2018-12-22T11:54:57.894Z,464.98
2018-12-22T11:55:57.890Z,463.29
2018-12-22T11:56:57.871Z,463.48
2018-12-22T11:57:57.847Z,461.48
2018-12-22T11:58:57.862Z,462.72
2018-12-22T11:59:57.863Z,460.31
2018-12-22T12:00:58.816Z,465.08
2018-12-22T12:01:57.818Z,463.76
2018-12-22T12:02:57.839Z,462.51
2018-12-22T12:03:57.883Z,469.16
2018-12-22T12:04:58.634Z,462.43
2018-12-22T12:05:57.780Z,467.84
2018-12-22T12:06:57.767Z,466.36
2018-12-22T12:07:57.781Z,464.94
2018-12-22T12:08:58.685Z,462.05
2018-12-22T12:09:57.883Z,465.44
2018-12-22T12:10:57.721Z,467.77
2018-12-22T12:11:57.730Z,464.42
2018-12-22T12:12:57.703Z,464.61
2018-12-22T12:13:57.683Z,463.85
2018-12-22T12:14:57.733Z,459.54
2018-12-22T12:15:57.665Z,468.16
2018-12-22T12:16:57.685Z,464.11
2018-12-22T12:17:57.635Z,460.28
2018-12-22T12:18:57.665Z,467.05
2018-12-22T12:19:57.632Z,462.56
2018-12-22T12:20:57.624Z,463.42
2018-12-22T12:21:57.608Z,463.86
2018-12-22T12:22:57.595Z,469.25
2018-12-22T12:23:57.589Z,465.21
2018-12-22T12:24:57.586Z,464.36
2018-12-22T12:25:57.596Z,454.17
2018-12-22T12:26:57.573Z,466.79
2018-12-22T12:27:57.560Z,450.29
2018-12-22T12:28:57.536Z,461.37
2018-12-22T12:29:57.528Z,464.76